sensor_id;sensor_type;location;lat;lon;timestamp;P1;durP1;ratioP1;P2;durP2;ratioP2
75311;SDS011;63906;55.686;37.532;2023-04-16T00:04:12;5.50;;;2.88;;
75311;SDS011;63906;55.686;37.532;2023-04-16T00:09:13;5.53;;;2.88;;
75311;SDS011;63906;55.686;37.532;2023-04-16T00:14:13;6.70;;;3.20;;
75311;SDS011;63906;55.686;37.532;2023-04-16T00:19:14;6.47;;;3.00;;
75311;SDS011;63906;55.686;37.532;2023-04-16T00:24:14;8.98;;;2.58;;
75311;SDS011;63906;55.686;37.532;2023-04-16T00:29:15;7.10;;;3.53;;
75311;SDS011;63906;55.686;37.532;2023-04-16T00:34:15;6.30;;;2.50;;
75311;SDS011;63906;55.686;37.532;2023-04-16T00:39:16;5.70;;;2.80;;
75311;SDS011;63906;55.686;37.532;2023-04-16T00:44:17;6.15;;;2.85;;
75311;SDS011;63906;55.686;37.532;2023-04-16T00:49:17;6.05;;;3.20;;
75311;SDS011;63906;55.686;37.532;2023-04-16T00:54:18;8.38;;;3.70;;
75311;SDS011;63906;55.686;37.532;2023-04-16T00:59:19;5.32;;;2.53;;
75311;SDS011;63906;55.686;37.532;2023-04-16T01:04:20;6.78;;;3.00;;
75311;SDS011;63906;55.686;37.532;2023-04-16T01:09:21;6.68;;;2.72;;
75311;SDS011;63906;55.686;37.532;2023-04-16T01:14:21;7.38;;;3.40;;
75311;SDS011;63906;55.686;37.532;2023-04-16T01:19:22;5.88;;;3.17;;
75311;SDS011;63906;55.686;37.532;2023-04-16T01:24:22;4.70;;;2.60;;
75311;SDS011;63906;55.686;37.532;2023-04-16T01:29:23;4.03;;;2.30;;
75311;SDS011;63906;55.686;37.532;2023-04-16T01:34:23;5.55;;;2.65;;
75311;SDS011;63906;55.686;37.532;2023-04-16T01:39:24;5.50;;;2.63;;
75311;SDS011;63906;55.686;37.532;2023-04-16T01:44:25;8.02;;;3.30;;
75311;SDS011;63906;55.686;37.532;2023-04-16T01:49:26;7.38;;;2.67;;
75311;SDS011;63906;55.686;37.532;2023-04-16T01:54:26;7.30;;;2.78;;
75311;SDS011;63906;55.686;37.532;2023-04-16T01:59:27;5.50;;;2.13;;
75311;SDS011;63906;55.686;37.532;2023-04-16T02:04:27;5.85;;;2.83;;
75311;SDS011;63906;55.686;37.532;2023-04-16T02:09:28;8.98;;;3.75;;
75311;SDS011;63906;55.686;37.532;2023-04-16T02:14:28;4.85;;;2.05;;
75311;SDS011;63906;55.686;37.532;2023-04-16T02:19:32;7.30;;;2.67;;
75311;SDS011;63906;55.686;37.532;2023-04-16T02:24:32;4.82;;;2.25;;
75311;SDS011;63906;55.686;37.532;2023-04-16T02:29:33;7.28;;;3.17;;
75311;SDS011;63906;55.686;37.532;2023-04-16T02:34:33;6.70;;;3.03;;
75311;SDS011;63906;55.686;37.532;2023-04-16T02:39:34;6.70;;;2.70;;
75311;SDS011;63906;55.686;37.532;2023-04-16T02:44:35;7.57;;;3.50;;
75311;SDS011;63906;55.686;37.532;2023-04-16T02:49:36;7.82;;;2.70;;
75311;SDS011;63906;55.686;37.532;2023-04-16T02:54:36;6.40;;;2.37;;
75311;SDS011;63906;55.686;37.532;2023-04-16T02:59:37;8.40;;;3.20;;
75311;SDS011;63906;55.686;37.532;2023-04-16T03:04:37;5.78;;;3.15;;
75311;SDS011;63906;55.686;37.532;2023-04-16T03:09:38;6.30;;;3.50;;
75311;SDS011;63906;55.686;37.532;2023-04-16T03:14:38;7.28;;;2.92;;
75311;SDS011;63906;55.686;37.532;2023-04-16T03:19:39;5.22;;;2.72;;
75311;SDS011;63906;55.686;37.532;2023-04-16T03:24:39;8.30;;;2.88;;
75311;SDS011;63906;55.686;37.532;2023-04-16T03:29:40;8.30;;;2.58;;
75311;SDS011;63906;55.686;37.532;2023-04-16T03:34:41;4.82;;;2.47;;
75311;SDS011;63906;55.686;37.532;2023-04-16T03:39:41;7.22;;;3.00;;
75311;SDS011;63906;55.686;37.532;2023-04-16T03:44:42;5.55;;;3.28;;
75311;SDS011;63906;55.686;37.532;2023-04-16T03:49:42;6.88;;;3.40;;
75311;SDS011;63906;55.686;37.532;2023-04-16T03:54:43;3.80;;;2.20;;
75311;SDS011;63906;55.686;37.532;2023-04-16T03:59:43;8.20;;;3.25;;
75311;SDS011;63906;55.686;37.532;2023-04-16T04:04:44;6.30;;;2.92;;
75311;SDS011;63906;55.686;37.532;2023-04-16T04:09:45;9.18;;;3.55;;
75311;SDS011;63906;55.686;37.532;2023-04-16T04:14:45;5.80;;;2.70;;
75311;SDS011;63906;55.686;37.532;2023-04-16T04:19:46;7.35;;;2.38;;
75311;SDS011;63906;55.686;37.532;2023-04-16T04:24:46;7.15;;;2.88;;
75311;SDS011;63906;55.686;37.532;2023-04-16T04:29:47;5.47;;;2.73;;
75311;SDS011;63906;55.686;37.532;2023-04-16T04:34:47;7.82;;;3.45;;
75311;SDS011;63906;55.686;37.532;2023-04-16T04:39:48;6.70;;;2.78;;
75311;SDS011;63906;55.686;37.532;2023-04-16T04:44:48;6.15;;;2.88;;
75311;SDS011;63906;55.686;37.532;2023-04-16T04:49:49;7.03;;;3.47;;
75311;SDS011;63906;55.686;37.532;2023-04-16T04:54:49;5.40;;;3.00;;
75311;SDS011;63906;55.686;37.532;2023-04-16T04:59:50;8.65;;;3.78;;
75311;SDS011;63906;55.686;37.532;2023-04-16T05:04:50;9.50;;;3.22;;
75311;SDS011;63906;55.686;37.532;2023-04-16T05:09:51;6.07;;;2.58;;
75311;SDS011;63906;55.686;37.532;2023-04-16T05:14:51;7.30;;;3.15;;
75311;SDS011;63906;55.686;37.532;2023-04-16T05:19:52;5.00;;;2.47;;
75311;SDS011;63906;55.686;37.532;2023-04-16T05:24:52;5.85;;;2.45;;
75311;SDS011;63906;55.686;37.532;2023-04-16T05:29:53;3.55;;;2.13;;
75311;SDS011;63906;55.686;37.532;2023-04-16T05:34:53;5.60;;;2.70;;
75311;SDS011;63906;55.686;37.532;2023-04-16T05:39:54;7.57;;;2.63;;
75311;SDS011;63906;55.686;37.532;2023-04-16T05:44:55;7.43;;;2.70;;
75311;SDS011;63906;55.686;37.532;2023-04-16T05:49:55;6.45;;;2.53;;
75311;SDS011;63906;55.686;37.532;2023-04-16T05:54:56;5.53;;;2.95;;
75311;SDS011;63906;55.686;37.532;2023-04-16T06:00:00;8.43;;;2.60;;
75311;SDS011;63906;55.686;37.532;2023-04-16T06:05:00;7.07;;;2.25;;
75311;SDS011;63906;55.686;37.532;2023-04-16T06:10:01;6.00;;;2.13;;
75311;SDS011;63906;55.686;37.532;2023-04-16T06:15:01;7.20;;;3.10;;
75311;SDS011;63906;55.686;37.532;2023-04-16T06:20:02;4.80;;;2.42;;
75311;SDS011;63906;55.686;37.532;2023-04-16T06:25:04;4.03;;;2.38;;
75311;SDS011;63906;55.686;37.532;2023-04-16T06:30:06;3.05;;;1.92;;
75311;SDS011;63906;55.686;37.532;2023-04-16T06:35:11;6.13;;;2.45;;
75311;SDS011;63906;55.686;37.532;2023-04-16T06:40:12;3.85;;;2.00;;
75311;SDS011;63906;55.686;37.532;2023-04-16T06:45:13;5.88;;;2.80;;
75311;SDS011;63906;55.686;37.532;2023-04-16T06:50:13;5.47;;;2.40;;
75311;SDS011;63906;55.686;37.532;2023-04-16T06:55:14;7.95;;;2.67;;
75311;SDS011;63906;55.686;37.532;2023-04-16T07:00:15;6.85;;;2.75;;
75311;SDS011;63906;55.686;37.532;2023-04-16T07:05:15;3.92;;;2.17;;
75311;SDS011;63906;55.686;37.532;2023-04-16T07:10:16;5.35;;;2.50;;
75311;SDS011;63906;55.686;37.532;2023-04-16T07:15:16;8.25;;;2.17;;
75311;SDS011;63906;55.686;37.532;2023-04-16T07:20:17;6.75;;;2.92;;
75311;SDS011;63906;55.686;37.532;2023-04-16T07:25:17;7.47;;;3.10;;
75311;SDS011;63906;55.686;37.532;2023-04-16T07:30:18;6.22;;;3.00;;
75311;SDS011;63906;55.686;37.532;2023-04-16T07:35:18;5.03;;;2.37;;
75311;SDS011;63906;55.686;37.532;2023-04-16T07:40:19;6.50;;;2.45;;
75311;SDS011;63906;55.686;37.532;2023-04-16T07:45:20;4.40;;;2.75;;
75311;SDS011;63906;55.686;37.532;2023-04-16T07:50:20;5.63;;;2.13;;
75311;SDS011;63906;55.686;37.532;2023-04-16T07:55:21;4.13;;;2.42;;
75311;SDS011;63906;55.686;37.532;2023-04-16T08:00:22;5.07;;;1.92;;
75311;SDS011;63906;55.686;37.532;2023-04-16T08:05:22;5.25;;;1.95;;
75311;SDS011;63906;55.686;37.532;2023-04-16T08:10:23;5.07;;;2.20;;
75311;SDS011;63906;55.686;37.532;2023-04-16T08:15:23;3.60;;;1.65;;
75311;SDS011;63906;55.686;37.532;2023-04-16T08:20:24;5.05;;;1.90;;
75311;SDS011;63906;55.686;37.532;2023-04-16T08:25:25;6.82;;;1.83;;
75311;SDS011;63906;55.686;37.532;2023-04-16T08:30:25;3.78;;;2.10;;
75311;SDS011;63906;55.686;37.532;2023-04-16T08:35:26;3.90;;;1.38;;
75311;SDS011;63906;55.686;37.532;2023-04-16T08:40:27;2.60;;;1.45;;
75311;SDS011;63906;55.686;37.532;2023-04-16T08:45:28;4.88;;;1.90;;
75311;SDS011;63906;55.686;37.532;2023-04-16T08:50:29;5.65;;;2.53;;
75311;SDS011;63906;55.686;37.532;2023-04-16T08:55:36;7.40;;;2.50;;
75311;SDS011;63906;55.686;37.532;2023-04-16T09:00:39;2.83;;;1.52;;
75311;SDS011;63906;55.686;37.532;2023-04-16T09:05:42;4.20;;;1.90;;
75311;SDS011;63906;55.686;37.532;2023-04-16T09:10:43;7.68;;;2.17;;
75311;SDS011;63906;55.686;37.532;2023-04-16T09:15:43;5.60;;;3.08;;
75311;SDS011;63906;55.686;37.532;2023-04-16T09:20:44;4.80;;;2.50;;
75311;SDS011;63906;55.686;37.532;2023-04-16T09:25:45;4.53;;;1.80;;
75311;SDS011;63906;55.686;37.532;2023-04-16T09:30:45;4.38;;;1.83;;
75311;SDS011;63906;55.686;37.532;2023-04-16T09:41:11;4.28;;;2.50;;
75311;SDS011;63906;55.686;37.532;2023-04-16T09:56:12;4.33;;;2.10;;
75311;SDS011;63906;55.686;37.532;2023-04-16T10:01:12;4.53;;;2.15;;
75311;SDS011;63906;55.686;37.532;2023-04-16T10:06:14;7.07;;;2.90;;
75311;SDS011;63906;55.686;37.532;2023-04-16T10:11:17;3.20;;;2.10;;
75311;SDS011;63906;55.686;37.532;2023-04-16T10:16:20;3.50;;;2.72;;
75311;SDS011;63906;55.686;37.532;2023-04-16T10:26:22;3.63;;;2.10;;
75311;SDS011;63906;55.686;37.532;2023-04-16T10:31:23;5.20;;;2.13;;
75311;SDS011;63906;55.686;37.532;2023-04-16T10:36:26;5.30;;;2.30;;
75311;SDS011;63906;55.686;37.532;2023-04-16T10:46:31;5.55;;;2.60;;
75311;SDS011;63906;55.686;37.532;2023-04-16T10:51:33;3.35;;;2.40;;
75311;SDS011;63906;55.686;37.532;2023-04-16T10:56:36;5.50;;;3.00;;
75311;SDS011;63906;55.686;37.532;2023-04-16T11:01:39;6.13;;;3.10;;
75311;SDS011;63906;55.686;37.532;2023-04-16T11:06:41;4.85;;;2.90;;
75311;SDS011;63906;55.686;37.532;2023-04-16T11:12:05;6.18;;;3.10;;
75311;SDS011;63906;55.686;37.532;2023-04-16T11:17:08;3.55;;;2.40;;
75311;SDS011;63906;55.686;37.532;2023-04-16T11:22:11;3.80;;;2.35;;
75311;SDS011;63906;55.686;37.532;2023-04-16T11:27:16;4.30;;;2.20;;
75311;SDS011;63906;55.686;37.532;2023-04-16T11:32:20;4.63;;;2.20;;
75311;SDS011;63906;55.686;37.532;2023-04-16T11:37:31;5.90;;;2.33;;
75311;SDS011;63906;55.686;37.532;2023-04-16T11:42:36;6.95;;;2.58;;
75311;SDS011;63906;55.686;37.532;2023-04-16T11:47:44;6.57;;;2.58;;
75311;SDS011;63906;55.686;37.532;2023-04-16T11:52:52;5.63;;;2.88;;
75311;SDS011;63906;55.686;37.532;2023-04-16T11:58:11;3.67;;;2.13;;
75311;SDS011;63906;55.686;37.532;2023-04-16T12:03:12;4.75;;;2.67;;
75311;SDS011;63906;55.686;37.532;2023-04-16T12:08:18;3.65;;;2.13;;
75311;SDS011;63906;55.686;37.532;2023-04-16T12:13:29;5.43;;;2.80;;
75311;SDS011;63906;55.686;37.532;2023-04-16T12:18:29;3.50;;;2.30;;
75311;SDS011;63906;55.686;37.532;2023-04-16T12:23:31;4.05;;;1.92;;
75311;SDS011;63906;55.686;37.532;2023-04-16T12:28:33;4.18;;;2.30;;
75311;SDS011;63906;55.686;37.532;2023-04-16T12:33:37;3.72;;;2.58;;
75311;SDS011;63906;55.686;37.532;2023-04-16T12:38:37;5.20;;;2.28;;
75311;SDS011;63906;55.686;37.532;2023-04-16T12:43:38;4.05;;;2.38;;
75311;SDS011;63906;55.686;37.532;2023-04-16T12:48:38;6.00;;;2.47;;
75311;SDS011;63906;55.686;37.532;2023-04-16T12:53:40;3.70;;;1.92;;
75311;SDS011;63906;55.686;37.532;2023-04-16T12:58:41;3.17;;;2.20;;
75311;SDS011;63906;55.686;37.532;2023-04-16T13:03:41;4.38;;;2.17;;
75311;SDS011;63906;55.686;37.532;2023-04-16T13:08:42;4.75;;;2.53;;
75311;SDS011;63906;55.686;37.532;2023-04-16T13:13:43;4.68;;;2.65;;
75311;SDS011;63906;55.686;37.532;2023-04-16T13:23:44;6.77;;;3.27;;
75311;SDS011;63906;55.686;37.532;2023-04-16T13:28:45;4.75;;;3.58;;
75311;SDS011;63906;55.686;37.532;2023-04-16T13:33:46;5.95;;;2.97;;
75311;SDS011;63906;55.686;37.532;2023-04-16T13:38:47;5.75;;;2.47;;
75311;SDS011;63906;55.686;37.532;2023-04-16T13:43:47;7.43;;;2.38;;
75311;SDS011;63906;55.686;37.532;2023-04-16T13:48:48;5.15;;;2.75;;
75311;SDS011;63906;55.686;37.532;2023-04-16T13:53:48;5.80;;;3.00;;
75311;SDS011;63906;55.686;37.532;2023-04-16T13:58:49;5.30;;;2.88;;
75311;SDS011;63906;55.686;37.532;2023-04-16T14:03:49;7.00;;;2.90;;
75311;SDS011;63906;55.686;37.532;2023-04-16T14:08:50;3.80;;;2.67;;
75311;SDS011;63906;55.686;37.532;2023-04-16T14:13:50;5.23;;;2.87;;
75311;SDS011;63906;55.686;37.532;2023-04-16T14:18:51;2.83;;;2.03;;
75311;SDS011;63906;55.686;37.532;2023-04-16T14:23:51;3.45;;;2.38;;
75311;SDS011;63906;55.686;37.532;2023-04-16T14:28:52;4.70;;;2.70;;
75311;SDS011;63906;55.686;37.532;2023-04-16T14:33:52;5.88;;;2.38;;
75311;SDS011;63906;55.686;37.532;2023-04-16T14:38:53;11.80;;;3.28;;
75311;SDS011;63906;55.686;37.532;2023-04-16T14:43:54;3.60;;;2.33;;
75311;SDS011;63906;55.686;37.532;2023-04-16T14:48:54;4.85;;;2.42;;
75311;SDS011;63906;55.686;37.532;2023-04-16T14:53:55;4.80;;;2.15;;
75311;SDS011;63906;55.686;37.532;2023-04-16T14:58:55;5.50;;;2.42;;
75311;SDS011;63906;55.686;37.532;2023-04-16T15:03:56;4.32;;;2.28;;
75311;SDS011;63906;55.686;37.532;2023-04-16T15:08:58;3.83;;;1.98;;
75311;SDS011;63906;55.686;37.532;2023-04-16T15:13:59;6.38;;;3.45;;
75311;SDS011;63906;55.686;37.532;2023-04-16T15:19:00;5.35;;;3.03;;
75311;SDS011;63906;55.686;37.532;2023-04-16T15:24:00;5.72;;;2.60;;
75311;SDS011;63906;55.686;37.532;2023-04-16T15:29:01;6.00;;;2.75;;
75311;SDS011;63906;55.686;37.532;2023-04-16T15:34:02;3.88;;;2.13;;
75311;SDS011;63906;55.686;37.532;2023-04-16T15:39:02;4.15;;;2.20;;
75311;SDS011;63906;55.686;37.532;2023-04-16T15:44:03;4.60;;;3.22;;
75311;SDS011;63906;55.686;37.532;2023-04-16T15:49:04;4.40;;;2.72;;
75311;SDS011;63906;55.686;37.532;2023-04-16T15:54:05;4.68;;;1.73;;
75311;SDS011;63906;55.686;37.532;2023-04-16T15:59:05;4.50;;;4.00;;
75311;SDS011;63906;55.686;37.532;2023-04-16T16:04:07;4.97;;;3.00;;
75311;SDS011;63906;55.686;37.532;2023-04-16T16:09:07;6.07;;;2.55;;
75311;SDS011;63906;55.686;37.532;2023-04-16T16:14:08;5.47;;;2.80;;
75311;SDS011;63906;55.686;37.532;2023-04-16T16:19:08;4.78;;;2.80;;
75311;SDS011;63906;55.686;37.532;2023-04-16T16:24:09;6.55;;;3.03;;
75311;SDS011;63906;55.686;37.532;2023-04-16T16:29:10;5.15;;;3.30;;
75311;SDS011;63906;55.686;37.532;2023-04-16T16:34:10;6.32;;;3.22;;
75311;SDS011;63906;55.686;37.532;2023-04-16T16:39:11;5.20;;;2.72;;
75311;SDS011;63906;55.686;37.532;2023-04-16T16:44:11;4.70;;;2.80;;
75311;SDS011;63906;55.686;37.532;2023-04-16T16:49:15;12.20;;;4.87;;
75311;SDS011;63906;55.686;37.532;2023-04-16T16:54:16;8.55;;;3.65;;
75311;SDS011;63906;55.686;37.532;2023-04-16T16:59:16;5.72;;;2.75;;
75311;SDS011;63906;55.686;37.532;2023-04-16T17:04:17;6.60;;;3.47;;
75311;SDS011;63906;55.686;37.532;2023-04-16T17:09:18;4.70;;;2.92;;
75311;SDS011;63906;55.686;37.532;2023-04-16T17:14:18;7.53;;;3.25;;
75311;SDS011;63906;55.686;37.532;2023-04-16T17:19:19;6.88;;;2.70;;
75311;SDS011;63906;55.686;37.532;2023-04-16T17:24:19;4.88;;;2.60;;
75311;SDS011;63906;55.686;37.532;2023-04-16T17:29:20;6.70;;;2.90;;
75311;SDS011;63906;55.686;37.532;2023-04-16T17:34:24;8.25;;;3.58;;
75311;SDS011;63906;55.686;37.532;2023-04-16T17:39:25;6.03;;;3.10;;
75311;SDS011;63906;55.686;37.532;2023-04-16T17:44:25;6.85;;;2.85;;
75311;SDS011;63906;55.686;37.532;2023-04-16T17:49:27;6.25;;;3.47;;
75311;SDS011;63906;55.686;37.532;2023-04-16T17:54:27;5.15;;;3.53;;
75311;SDS011;63906;55.686;37.532;2023-04-16T17:59:28;5.38;;;3.33;;
75311;SDS011;63906;55.686;37.532;2023-04-16T18:04:28;7.45;;;3.65;;
75311;SDS011;63906;55.686;37.532;2023-04-16T18:09:29;5.85;;;3.30;;
75311;SDS011;63906;55.686;37.532;2023-04-16T18:14:32;6.57;;;2.97;;
75311;SDS011;63906;55.686;37.532;2023-04-16T18:19:33;8.05;;;4.40;;
75311;SDS011;63906;55.686;37.532;2023-04-16T18:24:35;8.20;;;4.28;;
75311;SDS011;63906;55.686;37.532;2023-04-16T18:29:36;7.28;;;3.65;;
75311;SDS011;63906;55.686;37.532;2023-04-16T18:34:36;9.77;;;4.70;;
75311;SDS011;63906;55.686;37.532;2023-04-16T18:39:37;5.80;;;3.50;;
75311;SDS011;63906;55.686;37.532;2023-04-16T18:44:37;8.68;;;4.50;;
75311;SDS011;63906;55.686;37.532;2023-04-16T18:49:38;6.55;;;3.90;;
75311;SDS011;63906;55.686;37.532;2023-04-16T18:54:38;7.95;;;4.57;;
75311;SDS011;63906;55.686;37.532;2023-04-16T18:59:40;11.50;;;4.63;;
75311;SDS011;63906;55.686;37.532;2023-04-16T19:04:40;8.45;;;4.60;;
75311;SDS011;63906;55.686;37.532;2023-04-16T19:09:41;10.60;;;4.95;;
75311;SDS011;63906;55.686;37.532;2023-04-16T19:14:41;9.18;;;4.95;;
75311;SDS011;63906;55.686;37.532;2023-04-16T19:19:42;10.85;;;5.00;;
75311;SDS011;63906;55.686;37.532;2023-04-16T19:24:42;7.85;;;5.20;;
75311;SDS011;63906;55.686;37.532;2023-04-16T19:29:43;13.50;;;5.78;;
75311;SDS011;63906;55.686;37.532;2023-04-16T19:34:45;11.18;;;6.10;;
75311;SDS011;63906;55.686;37.532;2023-04-16T19:39:46;10.30;;;5.15;;
75311;SDS011;63906;55.686;37.532;2023-04-16T19:44:46;9.65;;;5.32;;
75311;SDS011;63906;55.686;37.532;2023-04-16T19:49:47;14.02;;;5.70;;
75311;SDS011;63906;55.686;37.532;2023-04-16T19:54:47;10.18;;;6.05;;
75311;SDS011;63906;55.686;37.532;2023-04-16T19:59:48;15.52;;;7.00;;
75311;SDS011;63906;55.686;37.532;2023-04-16T20:04:49;11.52;;;6.65;;
75311;SDS011;63906;55.686;37.532;2023-04-16T20:09:49;12.27;;;6.18;;
75311;SDS011;63906;55.686;37.532;2023-04-16T20:14:50;13.57;;;7.32;;
75311;SDS011;63906;55.686;37.532;2023-04-16T20:19:51;13.60;;;8.18;;
75311;SDS011;63906;55.686;37.532;2023-04-16T20:24:51;11.18;;;7.60;;
75311;SDS011;63906;55.686;37.532;2023-04-16T20:29:54;11.95;;;7.13;;
75311;SDS011;63906;55.686;37.532;2023-04-16T20:34:55;11.88;;;7.68;;
75311;SDS011;63906;55.686;37.532;2023-04-16T20:39:55;12.50;;;7.97;;
75311;SDS011;63906;55.686;37.532;2023-04-16T20:44:56;11.05;;;7.70;;
75311;SDS011;63906;55.686;37.532;2023-04-16T20:49:56;9.68;;;6.25;;
75311;SDS011;63906;55.686;37.532;2023-04-16T20:54:57;12.35;;;6.28;;
75311;SDS011;63906;55.686;37.532;2023-04-16T20:59:57;17.75;;;7.90;;
75311;SDS011;63906;55.686;37.532;2023-04-16T21:04:58;14.40;;;9.50;;
75311;SDS011;63906;55.686;37.532;2023-04-16T21:09:58;12.40;;;8.02;;
75311;SDS011;63906;55.686;37.532;2023-04-16T21:15:00;12.10;;;7.75;;
75311;SDS011;63906;55.686;37.532;2023-04-16T21:20:01;15.98;;;8.90;;
75311;SDS011;63906;55.686;37.532;2023-04-16T21:25:01;11.65;;;7.95;;
75311;SDS011;63906;55.686;37.532;2023-04-16T21:30:02;12.23;;;7.85;;
75311;SDS011;63906;55.686;37.532;2023-04-16T21:35:04;13.13;;;9.05;;
75311;SDS011;63906;55.686;37.532;2023-04-16T21:40:05;15.57;;;7.95;;
75311;SDS011;63906;55.686;37.532;2023-04-16T21:45:09;10.48;;;6.97;;
75311;SDS011;63906;55.686;37.532;2023-04-16T21:50:10;16.80;;;9.10;;
75311;SDS011;63906;55.686;37.532;2023-04-16T21:55:11;12.48;;;6.93;;
75311;SDS011;63906;55.686;37.532;2023-04-16T22:00:13;15.57;;;8.23;;
75311;SDS011;63906;55.686;37.532;2023-04-16T22:05:14;14.10;;;8.30;;
75311;SDS011;63906;55.686;37.532;2023-04-16T22:10:14;11.57;;;7.78;;
75311;SDS011;63906;55.686;37.532;2023-04-16T22:15:15;12.57;;;7.60;;
75311;SDS011;63906;55.686;37.532;2023-04-16T22:20:16;12.60;;;7.07;;
75311;SDS011;63906;55.686;37.532;2023-04-16T22:25:22;14.00;;;7.10;;
75311;SDS011;63906;55.686;37.532;2023-04-16T22:30:22;11.10;;;7.63;;
75311;SDS011;63906;55.686;37.532;2023-04-16T22:35:23;10.90;;;6.35;;
75311;SDS011;63906;55.686;37.532;2023-04-16T22:40:24;14.73;;;7.93;;
75311;SDS011;63906;55.686;37.532;2023-04-16T22:45:24;13.93;;;7.38;;
75311;SDS011;63906;55.686;37.532;2023-04-16T22:50:26;15.00;;;7.90;;
75311;SDS011;63906;55.686;37.532;2023-04-16T22:55:27;11.43;;;6.63;;
75311;SDS011;63906;55.686;37.532;2023-04-16T23:00:28;12.38;;;6.65;;
75311;SDS011;63906;55.686;37.532;2023-04-16T23:05:28;12.73;;;7.50;;
75311;SDS011;63906;55.686;37.532;2023-04-16T23:10:29;9.07;;;6.28;;
75311;SDS011;63906;55.686;37.532;2023-04-16T23:15:30;11.35;;;7.75;;
75311;SDS011;63906;55.686;37.532;2023-04-16T23:20:31;15.15;;;8.38;;
75311;SDS011;63906;55.686;37.532;2023-04-16T23:25:31;13.23;;;8.40;;
75311;SDS011;63906;55.686;37.532;2023-04-16T23:30:32;11.68;;;7.68;;
75311;SDS011;63906;55.686;37.532;2023-04-16T23:35:32;10.80;;;7.13;;
75311;SDS011;63906;55.686;37.532;2023-04-16T23:40:33;10.55;;;6.22;;
75311;SDS011;63906;55.686;37.532;2023-04-16T23:45:34;12.88;;;8.32;;
75311;SDS011;63906;55.686;37.532;2023-04-16T23:50:34;9.27;;;7.35;;
75311;SDS011;63906;55.686;37.532;2023-04-16T23:55:35;10.50;;;6.28;;
